sensor_id;sensor_type;location;lat;lon;timestamp;temperature;humidity
32650;DHT22;19055;51.064;3.712;2022-08-19T00:01:41;21.00;99.90
32650;DHT22;19055;51.064;3.712;2022-08-19T00:04:09;20.90;99.90
32650;DHT22;19055;51.064;3.712;2022-08-19T00:06:38;20.90;99.90
32650;DHT22;19055;51.064;3.712;2022-08-19T00:09:06;20.80;99.90
32650;DHT22;19055;51.064;3.712;2022-08-19T00:11:33;20.80;99.90
32650;DHT22;19055;51.064;3.712;2022-08-19T00:14:05;20.80;99.90
32650;DHT22;19055;51.064;3.712;2022-08-19T00:16:31;20.90;99.90
32650;DHT22;19055;51.064;3.712;2022-08-19T00:18:57;20.80;99.90
32650;DHT22;19055;51.064;3.712;2022-08-19T00:21:24;20.80;99.90
32650;DHT22;19055;51.064;3.712;2022-08-19T00:23:51;20.80;99.90
32650;DHT22;19055;51.064;3.712;2022-08-19T00:26:17;20.70;99.90
32650;DHT22;19055;51.064;3.712;2022-08-19T00:28:43;20.70;99.90
32650;DHT22;19055;51.064;3.712;2022-08-19T00:31:08;20.70;99.90
32650;DHT22;19055;51.064;3.712;2022-08-19T00:33:35;20.60;99.90
32650;DHT22;19055;51.064;3.712;2022-08-19T00:36:03;20.60;99.90
32650;DHT22;19055;51.064;3.712;2022-08-19T00:38:30;20.50;99.90
32650;DHT22;19055;51.064;3.712;2022-08-19T00:40:56;20.50;99.90
32650;DHT22;19055;51.064;3.712;2022-08-19T00:43:24;20.40;99.90
32650;DHT22;19055;51.064;3.712;2022-08-19T00:45:51;20.40;99.90
32650;DHT22;19055;51.064;3.712;2022-08-19T00:48:17;20.40;99.90
32650;DHT22;19055;51.064;3.712;2022-08-19T00:50:44;20.40;99.90
32650;DHT22;19055;51.064;3.712;2022-08-19T00:53:15;20.40;99.90
32650;DHT22;19055;51.064;3.712;2022-08-19T00:55:46;20.40;99.90
32650;DHT22;19055;51.064;3.712;2022-08-19T00:58:16;20.30;99.90
32650;DHT22;19055;51.064;3.712;2022-08-19T01:00:43;20.40;99.90
32650;DHT22;19055;51.064;3.712;2022-08-19T01:03:11;20.40;99.90
32650;DHT22;19055;51.064;3.712;2022-08-19T01:05:39;20.40;99.90
32650;DHT22;19055;51.064;3.712;2022-08-19T01:08:06;20.40;99.90
32650;DHT22;19055;51.064;3.712;2022-08-19T01:10:40;20.40;99.90
32650;DHT22;19055;51.064;3.712;2022-08-19T01:13:07;20.50;99.90
32650;DHT22;19055;51.064;3.712;2022-08-19T01:15:40;20.50;99.90
32650;DHT22;19055;51.064;3.712;2022-08-19T01:18:11;20.60;99.90
32650;DHT22;19055;51.064;3.712;2022-08-19T01:20:37;20.60;99.90
32650;DHT22;19055;51.064;3.712;2022-08-19T01:23:04;20.50;99.90
32650;DHT22;19055;51.064;3.712;2022-08-19T01:25:35;20.40;99.90
32650;DHT22;19055;51.064;3.712;2022-08-19T01:33:29;20.20;99.90
32650;DHT22;19055;51.064;3.712;2022-08-19T01:36:14;20.20;99.90
32650;DHT22;19055;51.064;3.712;2022-08-19T01:38:42;20.10;99.90
32650;DHT22;19055;51.064;3.712;2022-08-19T01:41:10;20.10;99.90
32650;DHT22;19055;51.064;3.712;2022-08-19T01:43:36;20.10;99.90
32650;DHT22;19055;51.064;3.712;2022-08-19T01:46:02;20.10;99.90
32650;DHT22;19055;51.064;3.712;2022-08-19T01:48:37;20.00;99.90
32650;DHT22;19055;51.064;3.712;2022-08-19T01:51:03;20.10;99.90
32650;DHT22;19055;51.064;3.712;2022-08-19T01:53:29;20.10;99.90
32650;DHT22;19055;51.064;3.712;2022-08-19T01:55:55;20.00;99.90
32650;DHT22;19055;51.064;3.712;2022-08-19T01:58:27;20.00;99.90
32650;DHT22;19055;51.064;3.712;2022-08-19T02:00:57;20.00;99.90
32650;DHT22;19055;51.064;3.712;2022-08-19T02:03:23;19.90;99.90
32650;DHT22;19055;51.064;3.712;2022-08-19T02:05:57;19.90;99.90
32650;DHT22;19055;51.064;3.712;2022-08-19T02:08:26;19.80;99.90
32650;DHT22;19055;51.064;3.712;2022-08-19T02:10:52;19.80;99.90
32650;DHT22;19055;51.064;3.712;2022-08-19T02:13:19;19.80;99.90
32650;DHT22;19055;51.064;3.712;2022-08-19T02:15:45;19.80;99.90
32650;DHT22;19055;51.064;3.712;2022-08-19T02:18:11;19.80;99.90
32650;DHT22;19055;51.064;3.712;2022-08-19T02:20:38;19.80;99.90
32650;DHT22;19055;51.064;3.712;2022-08-19T02:23:05;19.70;99.90
32650;DHT22;19055;51.064;3.712;2022-08-19T02:25:30;19.70;99.90
32650;DHT22;19055;51.064;3.712;2022-08-19T02:27:56;19.70;99.90
32650;DHT22;19055;51.064;3.712;2022-08-19T02:30:23;19.60;99.90
32650;DHT22;19055;51.064;3.712;2022-08-19T02:32:50;19.60;99.90
32650;DHT22;19055;51.064;3.712;2022-08-19T02:35:16;19.60;99.90
32650;DHT22;19055;51.064;3.712;2022-08-19T02:37:43;19.60;99.90
32650;DHT22;19055;51.064;3.712;2022-08-19T02:40:29;19.60;99.90
32650;DHT22;19055;51.064;3.712;2022-08-19T02:42:59;19.50;99.90
32650;DHT22;19055;51.064;3.712;2022-08-19T02:45:25;19.60;99.90
32650;DHT22;19055;51.064;3.712;2022-08-19T02:47:51;19.60;99.90
32650;DHT22;19055;51.064;3.712;2022-08-19T02:50:17;19.60;99.90
32650;DHT22;19055;51.064;3.712;2022-08-19T02:52:43;19.60;99.90
32650;DHT22;19055;51.064;3.712;2022-08-19T02:55:09;19.60;99.90
32650;DHT22;19055;51.064;3.712;2022-08-19T02:57:34;19.50;99.90
32650;DHT22;19055;51.064;3.712;2022-08-19T03:00:05;19.50;99.90
32650;DHT22;19055;51.064;3.712;2022-08-19T03:02:31;19.50;99.90
32650;DHT22;19055;51.064;3.712;2022-08-19T03:04:57;19.50;99.90
32650;DHT22;19055;51.064;3.712;2022-08-19T03:07:23;19.50;99.90
32650;DHT22;19055;51.064;3.712;2022-08-19T03:09:48;19.50;99.90
32650;DHT22;19055;51.064;3.712;2022-08-19T03:12:14;19.50;99.90
32650;DHT22;19055;51.064;3.712;2022-08-19T03:14:40;19.50;99.90
32650;DHT22;19055;51.064;3.712;2022-08-19T03:17:06;19.50;99.90
32650;DHT22;19055;51.064;3.712;2022-08-19T03:19:33;19.50;99.90
32650;DHT22;19055;51.064;3.712;2022-08-19T03:21:59;19.50;99.90
32650;DHT22;19055;51.064;3.712;2022-08-19T03:24:26;19.50;99.90
32650;DHT22;19055;51.064;3.712;2022-08-19T03:26:53;19.40;99.90
32650;DHT22;19055;51.064;3.712;2022-08-19T03:29:23;19.50;99.90
32650;DHT22;19055;51.064;3.712;2022-08-19T03:31:49;19.50;99.90
32650;DHT22;19055;51.064;3.712;2022-08-19T03:34:37;19.60;99.90
32650;DHT22;19055;51.064;3.712;2022-08-19T03:37:08;19.60;99.90
32650;DHT22;19055;51.064;3.712;2022-08-19T03:39:37;19.60;99.90
32650;DHT22;19055;51.064;3.712;2022-08-19T03:42:03;19.60;99.90
32650;DHT22;19055;51.064;3.712;2022-08-19T03:44:29;19.70;99.90
32650;DHT22;19055;51.064;3.712;2022-08-19T03:46:59;19.70;99.90
32650;DHT22;19055;51.064;3.712;2022-08-19T03:49:27;19.70;99.90
32650;DHT22;19055;51.064;3.712;2022-08-19T03:51:55;19.70;99.90
32650;DHT22;19055;51.064;3.712;2022-08-19T03:54:22;19.60;99.90
32650;DHT22;19055;51.064;3.712;2022-08-19T03:56:50;19.50;99.90
32650;DHT22;19055;51.064;3.712;2022-08-19T03:59:24;19.50;99.90
32650;DHT22;19055;51.064;3.712;2022-08-19T04:01:53;19.50;99.90
32650;DHT22;19055;51.064;3.712;2022-08-19T04:04:19;19.50;99.90
32650;DHT22;19055;51.064;3.712;2022-08-19T04:06:44;19.50;99.90
32650;DHT22;19055;51.064;3.712;2022-08-19T04:09:13;19.50;99.90
32650;DHT22;19055;51.064;3.712;2022-08-19T04:11:45;19.40;99.90
32650;DHT22;19055;51.064;3.712;2022-08-19T04:14:14;19.50;99.90
32650;DHT22;19055;51.064;3.712;2022-08-19T04:16:41;19.40;99.90
32650;DHT22;19055;51.064;3.712;2022-08-19T04:19:09;19.40;99.90
32650;DHT22;19055;51.064;3.712;2022-08-19T04:21:35;19.30;99.90
32650;DHT22;19055;51.064;3.712;2022-08-19T04:24:01;19.30;99.90
32650;DHT22;19055;51.064;3.712;2022-08-19T04:26:29;19.30;99.90
32650;DHT22;19055;51.064;3.712;2022-08-19T04:29:05;19.30;99.90
32650;DHT22;19055;51.064;3.712;2022-08-19T04:31:32;19.30;99.90
32650;DHT22;19055;51.064;3.712;2022-08-19T04:34:05;19.30;99.90
32650;DHT22;19055;51.064;3.712;2022-08-19T04:36:33;19.30;99.90
32650;DHT22;19055;51.064;3.712;2022-08-19T04:39:03;19.30;99.90
32650;DHT22;19055;51.064;3.712;2022-08-19T04:41:29;19.30;99.90
32650;DHT22;19055;51.064;3.712;2022-08-19T04:44:14;19.20;99.90
32650;DHT22;19055;51.064;3.712;2022-08-19T04:46:44;19.20;99.90
32650;DHT22;19055;51.064;3.712;2022-08-19T04:49:10;19.20;99.90
32650;DHT22;19055;51.064;3.712;2022-08-19T04:51:39;19.20;99.90
32650;DHT22;19055;51.064;3.712;2022-08-19T04:54:05;19.20;99.90
32650;DHT22;19055;51.064;3.712;2022-08-19T04:56:31;19.20;99.90
32650;DHT22;19055;51.064;3.712;2022-08-19T04:58:57;19.20;99.90
32650;DHT22;19055;51.064;3.712;2022-08-19T05:01:28;19.30;99.90
32650;DHT22;19055;51.064;3.712;2022-08-19T05:03:55;19.40;99.90
32650;DHT22;19055;51.064;3.712;2022-08-19T05:06:23;19.40;99.90
32650;DHT22;19055;51.064;3.712;2022-08-19T05:08:49;19.40;99.90
32650;DHT22;19055;51.064;3.712;2022-08-19T05:11:22;19.50;99.90
32650;DHT22;19055;51.064;3.712;2022-08-19T05:13:49;19.50;99.90
32650;DHT22;19055;51.064;3.712;2022-08-19T05:16:17;19.60;99.90
32650;DHT22;19055;51.064;3.712;2022-08-19T05:18:43;19.70;99.90
32650;DHT22;19055;51.064;3.712;2022-08-19T05:21:28;19.80;99.90
32650;DHT22;19055;51.064;3.712;2022-08-19T05:24:14;19.90;99.90
32650;DHT22;19055;51.064;3.712;2022-08-19T05:26:43;20.10;99.90
32650;DHT22;19055;51.064;3.712;2022-08-19T05:29:10;20.20;99.90
32650;DHT22;19055;51.064;3.712;2022-08-19T05:31:37;20.30;99.90
32650;DHT22;19055;51.064;3.712;2022-08-19T05:34:04;20.40;99.90
32650;DHT22;19055;51.064;3.712;2022-08-19T05:36:35;20.40;99.90
32650;DHT22;19055;51.064;3.712;2022-08-19T05:39:02;20.50;99.90
32650;DHT22;19055;51.064;3.712;2022-08-19T05:41:28;20.60;99.90
32650;DHT22;19055;51.064;3.712;2022-08-19T05:43:58;20.70;99.90
32650;DHT22;19055;51.064;3.712;2022-08-19T05:46:26;20.70;99.90
32650;DHT22;19055;51.064;3.712;2022-08-19T05:48:52;20.60;99.90
32650;DHT22;19055;51.064;3.712;2022-08-19T05:51:19;20.70;99.90
32650;DHT22;19055;51.064;3.712;2022-08-19T05:53:44;20.80;99.90
32650;DHT22;19055;51.064;3.712;2022-08-19T05:56:15;20.90;99.90
32650;DHT22;19055;51.064;3.712;2022-08-19T05:58:42;20.90;99.90
32650;DHT22;19055;51.064;3.712;2022-08-19T06:01:12;21.00;99.90
32650;DHT22;19055;51.064;3.712;2022-08-19T06:03:38;21.20;99.90
32650;DHT22;19055;51.064;3.712;2022-08-19T06:06:07;21.10;99.90
32650;DHT22;19055;51.064;3.712;2022-08-19T06:08:34;21.20;99.90
32650;DHT22;19055;51.064;3.712;2022-08-19T06:13:43;21.30;99.90
32650;DHT22;19055;51.064;3.712;2022-08-19T06:16:10;21.30;99.90
32650;DHT22;19055;51.064;3.712;2022-08-19T06:18:36;21.30;99.90
32650;DHT22;19055;51.064;3.712;2022-08-19T06:21:02;21.30;99.90
32650;DHT22;19055;51.064;3.712;2022-08-19T06:23:29;21.30;99.90
32650;DHT22;19055;51.064;3.712;2022-08-19T06:25:56;21.50;99.90
32650;DHT22;19055;51.064;3.712;2022-08-19T06:28:22;21.70;99.90
32650;DHT22;19055;51.064;3.712;2022-08-19T06:30:49;21.90;99.90
32650;DHT22;19055;51.064;3.712;2022-08-19T06:33:16;22.10;99.90
32650;DHT22;19055;51.064;3.712;2022-08-19T06:35:42;22.40;99.90
32650;DHT22;19055;51.064;3.712;2022-08-19T06:38:09;22.40;99.90
32650;DHT22;19055;51.064;3.712;2022-08-19T06:40:35;22.50;99.90
32650;DHT22;19055;51.064;3.712;2022-08-19T06:43:03;22.80;99.90
32650;DHT22;19055;51.064;3.712;2022-08-19T06:45:29;23.20;99.90
32650;DHT22;19055;51.064;3.712;2022-08-19T06:47:56;23.50;99.90
32650;DHT22;19055;51.064;3.712;2022-08-19T06:50:25;23.60;99.90
32650;DHT22;19055;51.064;3.712;2022-08-19T06:52:51;23.60;99.90
32650;DHT22;19055;51.064;3.712;2022-08-19T06:55:17;23.60;99.90
32650;DHT22;19055;51.064;3.712;2022-08-19T06:57:43;23.30;99.90
32650;DHT22;19055;51.064;3.712;2022-08-19T07:00:12;23.10;99.90
32650;DHT22;19055;51.064;3.712;2022-08-19T07:02:44;22.80;99.90
32650;DHT22;19055;51.064;3.712;2022-08-19T07:05:10;22.70;99.90
32650;DHT22;19055;51.064;3.712;2022-08-19T07:07:35;22.70;99.90
32650;DHT22;19055;51.064;3.712;2022-08-19T07:10:03;22.70;99.90
32650;DHT22;19055;51.064;3.712;2022-08-19T07:12:30;22.70;99.90
32650;DHT22;19055;51.064;3.712;2022-08-19T07:14:59;22.80;99.90
32650;DHT22;19055;51.064;3.712;2022-08-19T07:17:26;22.60;99.90
32650;DHT22;19055;51.064;3.712;2022-08-19T07:19:52;22.40;99.90
32650;DHT22;19055;51.064;3.712;2022-08-19T07:22:18;22.50;99.90
32650;DHT22;19055;51.064;3.712;2022-08-19T07:24:46;22.50;99.90
32650;DHT22;19055;51.064;3.712;2022-08-19T07:27:13;22.50;99.90
32650;DHT22;19055;51.064;3.712;2022-08-19T07:29:39;22.60;99.90
32650;DHT22;19055;51.064;3.712;2022-08-19T07:32:06;22.80;99.90
32650;DHT22;19055;51.064;3.712;2022-08-19T07:34:32;22.80;99.90
32650;DHT22;19055;51.064;3.712;2022-08-19T07:37:06;22.70;99.90
32650;DHT22;19055;51.064;3.712;2022-08-19T07:39:34;22.80;99.90
32650;DHT22;19055;51.064;3.712;2022-08-19T07:42:05;22.90;99.90
32650;DHT22;19055;51.064;3.712;2022-08-19T07:44:32;22.90;99.90
32650;DHT22;19055;51.064;3.712;2022-08-19T07:46:59;22.90;99.90
32650;DHT22;19055;51.064;3.712;2022-08-19T07:49:26;23.10;99.90
32650;DHT22;19055;51.064;3.712;2022-08-19T07:52:05;23.10;99.90
32650;DHT22;19055;51.064;3.712;2022-08-19T07:54:33;23.10;99.90
32650;DHT22;19055;51.064;3.712;2022-08-19T07:57:00;23.10;99.90
32650;DHT22;19055;51.064;3.712;2022-08-19T07:59:26;23.10;99.90
32650;DHT22;19055;51.064;3.712;2022-08-19T08:01:54;23.00;99.90
32650;DHT22;19055;51.064;3.712;2022-08-19T08:04:20;23.00;99.90
32650;DHT22;19055;51.064;3.712;2022-08-19T08:07:06;23.10;99.90
32650;DHT22;19055;51.064;3.712;2022-08-19T08:09:51;22.90;99.90
32650;DHT22;19055;51.064;3.712;2022-08-19T08:12:28;22.80;99.90
32650;DHT22;19055;51.064;3.712;2022-08-19T08:14:57;22.80;99.90
32650;DHT22;19055;51.064;3.712;2022-08-19T08:17:26;22.90;99.90
32650;DHT22;19055;51.064;3.712;2022-08-19T08:19:53;23.10;99.90
32650;DHT22;19055;51.064;3.712;2022-08-19T08:22:21;23.10;99.90
32650;DHT22;19055;51.064;3.712;2022-08-19T08:25:18;23.20;99.90
32650;DHT22;19055;51.064;3.712;2022-08-19T08:27:45;23.10;99.90
32650;DHT22;19055;51.064;3.712;2022-08-19T08:30:17;22.90;99.90
32650;DHT22;19055;51.064;3.712;2022-08-19T08:32:43;22.90;99.90
32650;DHT22;19055;51.064;3.712;2022-08-19T08:35:12;23.00;99.90
32650;DHT22;19055;51.064;3.712;2022-08-19T08:37:39;23.00;99.90
32650;DHT22;19055;51.064;3.712;2022-08-19T08:46:04;23.30;99.90
32650;DHT22;19055;51.064;3.712;2022-08-19T08:51:03;23.90;99.90
32650;DHT22;19055;51.064;3.712;2022-08-19T08:53:30;24.00;99.90
32650;DHT22;19055;51.064;3.712;2022-08-19T08:55:58;24.30;99.90
32650;DHT22;19055;51.064;3.712;2022-08-19T08:58:31;24.30;99.90
32650;DHT22;19055;51.064;3.712;2022-08-19T09:00:59;24.40;99.90
32650;DHT22;19055;51.064;3.712;2022-08-19T09:03:27;24.30;99.90
32650;DHT22;19055;51.064;3.712;2022-08-19T09:06:14;24.20;99.90
32650;DHT22;19055;51.064;3.712;2022-08-19T09:08:58;24.40;99.90
32650;DHT22;19055;51.064;3.712;2022-08-19T09:17:03;24.20;99.90
32650;DHT22;19055;51.064;3.712;2022-08-19T09:19:35;24.10;99.90
32650;DHT22;19055;51.064;3.712;2022-08-19T09:22:01;24.10;99.90
32650;DHT22;19055;51.064;3.712;2022-08-19T09:24:27;24.10;99.90
32650;DHT22;19055;51.064;3.712;2022-08-19T09:26:53;24.70;99.90
32650;DHT22;19055;51.064;3.712;2022-08-19T09:29:19;25.10;99.90
32650;DHT22;19055;51.064;3.712;2022-08-19T09:31:46;25.50;99.90
32650;DHT22;19055;51.064;3.712;2022-08-19T09:34:12;26.00;99.90
32650;DHT22;19055;51.064;3.712;2022-08-19T09:36:38;26.40;99.90
32650;DHT22;19055;51.064;3.712;2022-08-19T09:39:05;26.80;99.40
32650;DHT22;19055;51.064;3.712;2022-08-19T09:41:31;27.10;98.70
32650;DHT22;19055;51.064;3.712;2022-08-19T09:43:58;27.30;97.80
32650;DHT22;19055;51.064;3.712;2022-08-19T09:46:26;27.60;97.30
32650;DHT22;19055;51.064;3.712;2022-08-19T09:48:53;27.80;95.20
32650;DHT22;19055;51.064;3.712;2022-08-19T09:51:21;28.00;94.90
32650;DHT22;19055;51.064;3.712;2022-08-19T09:53:49;28.20;93.60
32650;DHT22;19055;51.064;3.712;2022-08-19T09:56:17;28.10;92.60
32650;DHT22;19055;51.064;3.712;2022-08-19T09:58:43;27.80;92.80
32650;DHT22;19055;51.064;3.712;2022-08-19T10:01:23;27.60;93.10
32650;DHT22;19055;51.064;3.712;2022-08-19T10:03:51;27.20;93.40
32650;DHT22;19055;51.064;3.712;2022-08-19T10:06:19;26.80;93.70
32650;DHT22;19055;51.064;3.712;2022-08-19T10:08:47;26.40;94.40
32650;DHT22;19055;51.064;3.712;2022-08-19T10:11:13;26.30;95.50
32650;DHT22;19055;51.064;3.712;2022-08-19T10:13:42;26.30;95.40
32650;DHT22;19055;51.064;3.712;2022-08-19T10:16:13;26.20;95.40
32650;DHT22;19055;51.064;3.712;2022-08-19T10:18:39;25.90;96.20
32650;DHT22;19055;51.064;3.712;2022-08-19T10:21:18;25.60;96.40
32650;DHT22;19055;51.064;3.712;2022-08-19T10:23:47;25.50;97.00
32650;DHT22;19055;51.064;3.712;2022-08-19T10:26:19;25.40;97.60
32650;DHT22;19055;51.064;3.712;2022-08-19T10:28:45;25.40;98.00
32650;DHT22;19055;51.064;3.712;2022-08-19T10:31:20;25.60;97.90
32650;DHT22;19055;51.064;3.712;2022-08-19T10:33:47;26.00;97.60
32650;DHT22;19055;51.064;3.712;2022-08-19T10:36:24;26.50;96.70
32650;DHT22;19055;51.064;3.712;2022-08-19T10:38:54;27.20;94.80
32650;DHT22;19055;51.064;3.712;2022-08-19T10:41:26;27.70;93.60
32650;DHT22;19055;51.064;3.712;2022-08-19T10:43:57;27.80;93.00
32650;DHT22;19055;51.064;3.712;2022-08-19T10:46:25;27.70;92.00
32650;DHT22;19055;51.064;3.712;2022-08-19T10:48:52;27.60;92.20
32650;DHT22;19055;51.064;3.712;2022-08-19T10:51:19;27.80;92.30
32650;DHT22;19055;51.064;3.712;2022-08-19T10:54:04;27.90;91.80
32650;DHT22;19055;51.064;3.712;2022-08-19T10:56:31;28.10;91.00
32650;DHT22;19055;51.064;3.712;2022-08-19T10:59:20;28.10;90.50
32650;DHT22;19055;51.064;3.712;2022-08-19T11:01:48;27.70;90.70
32650;DHT22;19055;51.064;3.712;2022-08-19T11:04:15;27.50;91.20
32650;DHT22;19055;51.064;3.712;2022-08-19T11:06:44;27.30;90.90
32650;DHT22;19055;51.064;3.712;2022-08-19T11:09:24;27.20;91.50
32650;DHT22;19055;51.064;3.712;2022-08-19T11:11:50;27.10;91.80
32650;DHT22;19055;51.064;3.712;2022-08-19T11:14:20;27.00;92.10
32650;DHT22;19055;51.064;3.712;2022-08-19T11:16:48;27.10;92.00
32650;DHT22;19055;51.064;3.712;2022-08-19T11:19:15;26.90;92.10
32650;DHT22;19055;51.064;3.712;2022-08-19T11:21:46;27.00;92.00
32650;DHT22;19055;51.064;3.712;2022-08-19T11:24:15;27.00;92.20
32650;DHT22;19055;51.064;3.712;2022-08-19T11:26:42;27.00;92.10
32650;DHT22;19055;51.064;3.712;2022-08-19T11:29:09;26.90;91.70
32650;DHT22;19055;51.064;3.712;2022-08-19T11:31:44;26.70;92.60
32650;DHT22;19055;51.064;3.712;2022-08-19T11:34:13;26.90;92.50
32650;DHT22;19055;51.064;3.712;2022-08-19T11:36:43;26.90;92.30
32650;DHT22;19055;51.064;3.712;2022-08-19T11:39:14;26.90;92.00
32650;DHT22;19055;51.064;3.712;2022-08-19T11:41:40;26.90;92.20
32650;DHT22;19055;51.064;3.712;2022-08-19T11:44:06;27.00;92.00
32650;DHT22;19055;51.064;3.712;2022-08-19T11:46:35;27.10;91.90
32650;DHT22;19055;51.064;3.712;2022-08-19T11:49:04;27.30;91.80
32650;DHT22;19055;51.064;3.712;2022-08-19T11:51:31;27.30;91.20
32650;DHT22;19055;51.064;3.712;2022-08-19T11:53:58;27.20;91.40
32650;DHT22;19055;51.064;3.712;2022-08-19T11:56:25;27.20;91.30
32650;DHT22;19055;51.064;3.712;2022-08-19T11:58:51;27.00;91.40
32650;DHT22;19055;51.064;3.712;2022-08-19T12:01:20;26.80;91.70
32650;DHT22;19055;51.064;3.712;2022-08-19T12:03:49;26.60;91.70
32650;DHT22;19055;51.064;3.712;2022-08-19T12:06:19;26.50;92.30
32650;DHT22;19055;51.064;3.712;2022-08-19T12:08:45;26.70;92.60
32650;DHT22;19055;51.064;3.712;2022-08-19T12:11:13;26.90;92.20
32650;DHT22;19055;51.064;3.712;2022-08-19T12:13:40;27.30;91.90
32650;DHT22;19055;51.064;3.712;2022-08-19T12:16:12;27.50;90.50
32650;DHT22;19055;51.064;3.712;2022-08-19T12:18:42;27.70;90.00
32650;DHT22;19055;51.064;3.712;2022-08-19T12:21:14;28.00;89.60
32650;DHT22;19055;51.064;3.712;2022-08-19T12:23:42;28.50;87.50
32650;DHT22;19055;51.064;3.712;2022-08-19T12:26:11;29.10;85.30
32650;DHT22;19055;51.064;3.712;2022-08-19T12:28:37;29.30;83.50
32650;DHT22;19055;51.064;3.712;2022-08-19T12:31:03;29.50;82.80
32650;DHT22;19055;51.064;3.712;2022-08-19T12:33:29;29.80;81.10
32650;DHT22;19055;51.064;3.712;2022-08-19T12:36:02;30.00;79.30
32650;DHT22;19055;51.064;3.712;2022-08-19T12:38:29;30.00;77.90
32650;DHT22;19055;51.064;3.712;2022-08-19T12:40:55;29.50;77.10
32650;DHT22;19055;51.064;3.712;2022-08-19T12:43:21;29.20;78.60
32650;DHT22;19055;51.064;3.712;2022-08-19T12:45:48;29.10;79.70
32650;DHT22;19055;51.064;3.712;2022-08-19T12:48:14;29.10;79.70
32650;DHT22;19055;51.064;3.712;2022-08-19T12:50:43;29.30;79.30
32650;DHT22;19055;51.064;3.712;2022-08-19T12:53:11;29.60;79.30
32650;DHT22;19055;51.064;3.712;2022-08-19T12:55:37;29.70;78.90
32650;DHT22;19055;51.064;3.712;2022-08-19T12:58:03;29.60;79.00
32650;DHT22;19055;51.064;3.712;2022-08-19T13:00:29;29.60;78.50
32650;DHT22;19055;51.064;3.712;2022-08-19T13:02:56;29.60;78.20
32650;DHT22;19055;51.064;3.712;2022-08-19T13:05:24;29.30;78.30
32650;DHT22;19055;51.064;3.712;2022-08-19T13:07:52;29.20;78.80
32650;DHT22;19055;51.064;3.712;2022-08-19T13:10:21;29.20;78.90
32650;DHT22;19055;51.064;3.712;2022-08-19T13:12:49;29.20;78.80
32650;DHT22;19055;51.064;3.712;2022-08-19T13:15:19;29.00;79.50
32650;DHT22;19055;51.064;3.712;2022-08-19T13:17:49;28.80;80.10
32650;DHT22;19055;51.064;3.712;2022-08-19T13:20:19;28.60;81.20
32650;DHT22;19055;51.064;3.712;2022-08-19T13:22:46;28.50;84.50
32650;DHT22;19055;51.064;3.712;2022-08-19T13:25:14;27.90;85.70
32650;DHT22;19055;51.064;3.712;2022-08-19T13:27:43;27.10;90.50
32650;DHT22;19055;51.064;3.712;2022-08-19T13:30:11;26.40;92.60
32650;DHT22;19055;51.064;3.712;2022-08-19T13:32:56;25.80;94.50
32650;DHT22;19055;51.064;3.712;2022-08-19T13:35:41;25.70;97.00
32650;DHT22;19055;51.064;3.712;2022-08-19T13:38:09;25.50;97.40
32650;DHT22;19055;51.064;3.712;2022-08-19T13:40:35;25.50;98.70
32650;DHT22;19055;51.064;3.712;2022-08-19T13:43:03;25.50;99.80
32650;DHT22;19055;51.064;3.712;2022-08-19T13:45:33;25.60;98.80
32650;DHT22;19055;51.064;3.712;2022-08-19T13:48:00;25.60;98.70
32650;DHT22;19055;51.064;3.712;2022-08-19T13:50:30;25.90;99.30
32650;DHT22;19055;51.064;3.712;2022-08-19T13:52:56;26.10;98.50
32650;DHT22;19055;51.064;3.712;2022-08-19T13:55:24;26.10;98.00
32650;DHT22;19055;51.064;3.712;2022-08-19T13:57:51;26.10;98.80
32650;DHT22;19055;51.064;3.712;2022-08-19T14:00:18;26.00;98.90
32650;DHT22;19055;51.064;3.712;2022-08-19T14:02:45;26.00;99.90
32650;DHT22;19055;51.064;3.712;2022-08-19T14:05:13;26.10;99.90
32650;DHT22;19055;51.064;3.712;2022-08-19T14:07:40;26.60;99.90
32650;DHT22;19055;51.064;3.712;2022-08-19T14:10:08;26.90;98.10
32650;DHT22;19055;51.064;3.712;2022-08-19T14:12:35;26.60;97.40
32650;DHT22;19055;51.064;3.712;2022-08-19T14:15:02;26.50;97.80
32650;DHT22;19055;51.064;3.712;2022-08-19T14:17:28;26.40;97.80
32650;DHT22;19055;51.064;3.712;2022-08-19T14:20:03;26.50;99.10
32650;DHT22;19055;51.064;3.712;2022-08-19T14:22:37;26.60;98.60
32650;DHT22;19055;51.064;3.712;2022-08-19T14:25:05;26.60;98.90
32650;DHT22;19055;51.064;3.712;2022-08-19T14:27:37;26.50;97.90
32650;DHT22;19055;51.064;3.712;2022-08-19T14:30:07;26.60;98.70
32650;DHT22;19055;51.064;3.712;2022-08-19T14:32:35;26.50;98.10
32650;DHT22;19055;51.064;3.712;2022-08-19T14:35:04;26.30;97.80
32650;DHT22;19055;51.064;3.712;2022-08-19T14:37:33;26.40;98.70
32650;DHT22;19055;51.064;3.712;2022-08-19T14:39:59;26.40;97.70
32650;DHT22;19055;51.064;3.712;2022-08-19T14:42:25;26.50;97.70
32650;DHT22;19055;51.064;3.712;2022-08-19T14:44:51;27.00;98.20
32650;DHT22;19055;51.064;3.712;2022-08-19T14:47:17;27.20;97.30
32650;DHT22;19055;51.064;3.712;2022-08-19T14:49:43;27.40;95.30
32650;DHT22;19055;51.064;3.712;2022-08-19T14:52:09;27.40;95.70
32650;DHT22;19055;51.064;3.712;2022-08-19T14:54:35;27.10;94.20
32650;DHT22;19055;51.064;3.712;2022-08-19T14:57:01;26.80;95.20
32650;DHT22;19055;51.064;3.712;2022-08-19T14:59:26;26.80;96.10
32650;DHT22;19055;51.064;3.712;2022-08-19T15:01:52;26.80;96.70
32650;DHT22;19055;51.064;3.712;2022-08-19T15:04:18;26.80;96.70
32650;DHT22;19055;51.064;3.712;2022-08-19T15:06:44;26.70;96.40
32650;DHT22;19055;51.064;3.712;2022-08-19T15:09:10;26.30;96.80
32650;DHT22;19055;51.064;3.712;2022-08-19T15:11:36;26.30;97.70
32650;DHT22;19055;51.064;3.712;2022-08-19T15:14:04;26.60;97.80
32650;DHT22;19055;51.064;3.712;2022-08-19T15:16:31;26.60;96.30
32650;DHT22;19055;51.064;3.712;2022-08-19T15:18:58;26.70;97.50
32650;DHT22;19055;51.064;3.712;2022-08-19T15:21:26;26.60;96.20
32650;DHT22;19055;51.064;3.712;2022-08-19T15:23:55;26.50;96.60
32650;DHT22;19055;51.064;3.712;2022-08-19T15:26:22;26.50;96.10
32650;DHT22;19055;51.064;3.712;2022-08-19T15:28:49;26.70;96.50
32650;DHT22;19055;51.064;3.712;2022-08-19T15:31:18;26.80;96.30
32650;DHT22;19055;51.064;3.712;2022-08-19T15:33:44;26.90;95.90
32650;DHT22;19055;51.064;3.712;2022-08-19T15:36:10;27.10;95.00
32650;DHT22;19055;51.064;3.712;2022-08-19T15:38:39;27.10;94.30
32650;DHT22;19055;51.064;3.712;2022-08-19T15:41:25;27.10;94.30
32650;DHT22;19055;51.064;3.712;2022-08-19T15:46:25;27.00;94.70
32650;DHT22;19055;51.064;3.712;2022-08-19T15:48:51;26.90;94.80
32650;DHT22;19055;51.064;3.712;2022-08-19T15:51:18;26.70;94.60
32650;DHT22;19055;51.064;3.712;2022-08-19T15:53:45;26.50;95.90
32650;DHT22;19055;51.064;3.712;2022-08-19T15:56:11;26.50;96.10
32650;DHT22;19055;51.064;3.712;2022-08-19T15:58:37;26.40;94.70
32650;DHT22;19055;51.064;3.712;2022-08-19T16:01:21;26.40;95.60
32650;DHT22;19055;51.064;3.712;2022-08-19T16:03:54;26.40;95.30